createdAt,value
2022-08-25T00:01:39.751Z,21.20
2022-08-25T00:07:05.642Z,21.10
2022-08-25T00:10:35.861Z,21.10
2022-08-25T00:13:03.996Z,21.00
2022-08-25T00:15:31.616Z,20.90
2022-08-25T00:17:59.300Z,20.80
2022-08-25T00:20:27.443Z,20.70
2022-08-25T00:22:55.361Z,20.60
2022-08-25T00:25:22.836Z,20.60
2022-08-25T00:27:52.746Z,20.50
2022-08-25T00:30:19.794Z,20.60
2022-08-25T00:32:55.096Z,20.60
2022-08-25T00:35:28.110Z,20.60
2022-08-25T00:37:55.037Z,20.60
2022-08-25T00:40:23.805Z,20.60
2022-08-25T00:42:50.665Z,20.60
2022-08-25T00:45:20.136Z,20.50
2022-08-25T00:47:47.463Z,20.50
2022-08-25T00:50:26.641Z,20.40
2022-08-25T00:53:01.085Z,20.30
2022-08-25T00:55:33.493Z,20.20
2022-08-25T00:58:06.874Z,20.20
2022-08-25T01:00:43.983Z,20.10
2022-08-25T01:03:17.655Z,20.10
2022-08-25T01:05:46.012Z,20.00
2022-08-25T01:08:20.589Z,19.90
2022-08-25T01:10:50.563Z,19.90
2022-08-25T01:13:27.514Z,19.80
2022-08-25T01:15:58.247Z,19.80
2022-08-25T01:18:26.649Z,19.70
2022-08-25T01:20:55.482Z,19.60
2022-08-25T01:23:25.861Z,19.50
2022-08-25T01:26:05.114Z,19.50
2022-08-25T01:28:31.972Z,19.40
2022-08-25T01:31:01.616Z,19.30
2022-08-25T01:33:28.364Z,19.20
2022-08-25T01:35:57.627Z,19.20
2022-08-25T01:38:24.301Z,19.10
2022-08-25T01:40:53.189Z,19.10
2022-08-25T01:43:34.927Z,19.10
2022-08-25T01:46:01.713Z,19.00
2022-08-25T01:48:32.149Z,19.00
2022-08-25T01:50:58.879Z,18.90
2022-08-25T01:53:33.652Z,18.80
2022-08-25T01:56:14.080Z,18.80
2022-08-25T01:58:46.588Z,18.80
2022-08-25T02:01:18.521Z,18.80
2022-08-25T02:03:48.095Z,18.80
2022-08-25T02:06:21.813Z,18.80
2022-08-25T02:09:00.694Z,18.90
2022-08-25T02:11:28.353Z,18.80
2022-08-25T02:13:55.572Z,18.80
2022-08-25T02:16:29.270Z,18.80
2022-08-25T02:18:56.357Z,18.70
2022-08-25T02:21:23.077Z,18.60
2022-08-25T02:23:49.919Z,18.50
2022-08-25T02:26:19.634Z,18.50
2022-08-25T02:28:47.565Z,18.40
2022-08-25T02:31:16.110Z,18.40
2022-08-25T02:33:43.608Z,18.30
2022-08-25T02:36:15.305Z,18.30
2022-08-25T02:38:42.450Z,18.30
2022-08-25T02:41:12.737Z,18.40
2022-08-25T02:43:54.511Z,18.50
2022-08-25T02:55:07.778Z,18.40
2022-08-25T02:57:37.412Z,18.40
2022-08-25T03:00:05.484Z,18.30
2022-08-25T03:02:32.155Z,18.20
2022-08-25T03:04:58.934Z,18.20
2022-08-25T03:07:30.752Z,18.20
2022-08-25T03:10:23.730Z,18.10
2022-08-25T03:12:54.772Z,18.10
2022-08-25T03:15:27.877Z,18.00
2022-08-25T03:18:22.605Z,18.00
2022-08-25T03:20:54.677Z,17.90
2022-08-25T03:23:24.689Z,17.80
2022-08-25T03:26:22.335Z,17.80
2022-08-25T03:28:50.153Z,17.80
2022-08-25T03:31:19.261Z,17.70
2022-08-25T03:33:46.784Z,17.70
2022-08-25T03:36:15.576Z,17.70
2022-08-25T03:38:42.313Z,17.70
2022-08-25T03:41:19.578Z,17.70
2022-08-25T03:43:50.250Z,17.60
2022-08-25T03:46:23.082Z,17.60
2022-08-25T03:48:53.791Z,17.50
2022-08-25T03:51:26.288Z,17.50
2022-08-25T03:53:53.294Z,17.40
2022-08-25T03:56:32.834Z,17.30
2022-08-25T03:59:27.235Z,17.30
2022-08-25T04:01:56.395Z,17.30
2022-08-25T04:04:26.061Z,17.30
2022-08-25T04:06:54.792Z,17.30
2022-08-25T04:09:25.277Z,17.30
2022-08-25T04:11:53.429Z,17.30
2022-08-25T04:14:21.125Z,17.30
2022-08-25T04:16:52.031Z,17.30
2022-08-25T04:19:22.073Z,17.40
2022-08-25T04:21:49.801Z,17.50
2022-08-25T04:24:18.911Z,17.50
2022-08-25T04:26:48.991Z,17.60
2022-08-25T04:29:23.601Z,17.70
2022-08-25T04:31:51.836Z,17.80
2022-08-25T04:34:30.271Z,17.80
2022-08-25T04:37:00.461Z,17.90
2022-08-25T04:39:27.433Z,17.90
2022-08-25T04:41:54.541Z,18.00
2022-08-25T04:44:23.364Z,18.00
2022-08-25T04:46:52.364Z,17.90
2022-08-25T04:49:24.838Z,17.80
2022-08-25T04:51:57.129Z,17.70
2022-08-25T04:54:24.015Z,17.70
2022-08-25T04:56:54.168Z,17.60
2022-08-25T04:59:29.369Z,17.70
2022-08-25T05:02:01.361Z,17.60
2022-08-25T05:04:34.428Z,17.60
2022-08-25T05:07:01.537Z,17.60
2022-08-25T05:09:28.441Z,17.50
2022-08-25T05:11:55.337Z,17.50
2022-08-25T05:14:26.929Z,17.40
2022-08-25T05:17:00.021Z,17.40
2022-08-25T05:19:35.393Z,17.40
2022-08-25T05:22:02.327Z,17.30
2022-08-25T05:24:29.049Z,17.30
2022-08-25T05:26:56.115Z,17.20
2022-08-25T05:29:23.224Z,17.20
2022-08-25T05:31:50.783Z,17.20
2022-08-25T05:34:18.677Z,17.20
2022-08-25T05:36:55.919Z,17.30
2022-08-25T05:39:22.626Z,17.30
2022-08-25T05:41:50.562Z,17.40
2022-08-25T05:44:21.116Z,17.50
2022-08-25T05:46:48.950Z,17.60
2022-08-25T05:49:19.117Z,17.60
2022-08-25T05:51:48.305Z,17.80
2022-08-25T05:54:21.021Z,17.90
2022-08-25T05:56:47.821Z,18.00
2022-08-25T05:59:14.447Z,18.10
2022-08-25T06:05:08.614Z,18.30
2022-08-25T06:07:41.087Z,18.40
2022-08-25T06:13:07.002Z,18.70
2022-08-25T06:15:33.828Z,18.80
2022-08-25T06:18:42.975Z,18.90
2022-08-25T06:21:15.830Z,19.00
2022-08-25T06:23:42.483Z,19.10
2022-08-25T06:26:21.195Z,19.20
2022-08-25T06:28:52.033Z,19.40
2022-08-25T06:31:21.518Z,19.50
2022-08-25T06:33:55.154Z,19.60
2022-08-25T06:36:22.010Z,19.70
2022-08-25T06:38:54.465Z,19.80
2022-08-25T06:41:21.632Z,19.90
2022-08-25T06:43:56.035Z,20.00
2022-08-25T06:46:36.095Z,20.10
2022-08-25T06:49:06.011Z,20.30
2022-08-25T06:51:35.173Z,20.50
2022-08-25T06:54:02.196Z,20.60
2022-08-25T06:56:30.964Z,20.80
2022-08-25T06:58:57.809Z,21.00
2022-08-25T07:01:27.486Z,21.10
2022-08-25T07:03:57.003Z,21.20
2022-08-25T07:06:30.901Z,21.30
2022-08-25T07:09:03.274Z,21.50
2022-08-25T07:11:33.505Z,21.70
2022-08-25T07:14:02.321Z,21.90
2022-08-25T07:16:29.757Z,22.00
2022-08-25T07:19:25.629Z,22.10
2022-08-25T07:22:01.119Z,22.30
2022-08-25T07:24:30.962Z,22.50
2022-08-25T07:27:00.778Z,22.70
2022-08-25T07:29:32.786Z,22.90
2022-08-25T07:32:02.049Z,23.00
2022-08-25T07:34:51.815Z,23.20
2022-08-25T07:37:47.151Z,23.30
2022-08-25T07:40:09.903Z,23.40
2022-08-25T07:42:37.130Z,23.60
2022-08-25T07:45:17.425Z,23.70
2022-08-25T07:47:48.658Z,23.90
2022-08-25T07:50:19.924Z,24.00
2022-08-25T07:52:53.510Z,24.20
2022-08-25T07:55:25.308Z,24.40
2022-08-25T07:57:56.072Z,24.60
2022-08-25T08:00:38.238Z,24.80
2022-08-25T08:03:12.844Z,24.90
2022-08-25T08:05:50.909Z,25.00
2022-08-25T08:08:17.549Z,25.10
2022-08-25T08:11:03.232Z,25.30
2022-08-25T08:13:34.860Z,25.40
2022-08-25T08:16:11.288Z,25.60
2022-08-25T08:18:42.274Z,25.70
2022-08-25T08:21:19.313Z,25.80
2022-08-25T08:23:55.393Z,25.90
2022-08-25T08:26:36.440Z,26.00
2022-08-25T08:29:14.065Z,26.00
2022-08-25T08:31:40.777Z,26.20
2022-08-25T08:34:18.827Z,26.30
2022-08-25T08:36:45.547Z,26.50
2022-08-25T08:39:14.962Z,26.60
2022-08-25T08:42:16.965Z,26.70
2022-08-25T08:44:53.231Z,26.80
2022-08-25T08:47:30.907Z,27.10
2022-08-25T08:50:35.192Z,27.30
2022-08-25T08:53:36.151Z,27.50
2022-08-25T08:56:12.525Z,27.70
2022-08-25T08:58:39.395Z,27.70
2022-08-25T09:07:21.699Z,27.90
2022-08-25T09:09:52.211Z,28.00
2022-08-25T09:12:40.600Z,28.10
2022-08-25T09:15:19.692Z,28.20
2022-08-25T09:17:54.590Z,28.40
2022-08-25T09:20:54.200Z,28.60
2022-08-25T09:23:34.316Z,28.80
2022-08-25T09:26:15.323Z,29.00
2022-08-25T09:28:53.287Z,29.20
2022-08-25T09:31:29.882Z,29.30
2022-08-25T09:34:03.836Z,29.20
2022-08-25T09:36:37.947Z,29.40
2022-08-25T09:39:06.209Z,29.50
2022-08-25T09:41:41.530Z,29.60
2022-08-25T09:44:29.318Z,29.60
2022-08-25T09:47:01.164Z,29.60
2022-08-25T09:49:43.288Z,29.70
2022-08-25T09:52:35.609Z,29.70
2022-08-25T09:55:08.444Z,29.80
2022-08-25T09:57:52.875Z,30.10
2022-08-25T10:00:37.376Z,30.00
2022-08-25T10:03:22.704Z,30.20
2022-08-25T10:06:17.051Z,30.50
2022-08-25T10:08:46.180Z,30.70
2022-08-25T10:11:48.857Z,30.70
2022-08-25T10:14:17.504Z,30.50
2022-08-25T10:16:47.034Z,30.60
2022-08-25T10:19:27.837Z,30.70
2022-08-25T10:22:11.130Z,30.80
2022-08-25T10:24:41.016Z,31.10
2022-08-25T10:27:30.858Z,31.30
2022-08-25T10:30:03.523Z,31.60
2022-08-25T10:32:58.050Z,31.60
2022-08-25T10:35:36.092Z,31.80
2022-08-25T10:38:22.275Z,31.90
2022-08-25T10:41:15.599Z,31.90
2022-08-25T10:44:42.043Z,32.10
2022-08-25T10:47:49.914Z,32.00
2022-08-25T10:50:37.981Z,31.90
2022-08-25T10:53:13.265Z,32.30
2022-08-25T10:55:55.285Z,32.50
2022-08-25T10:59:03.574Z,32.50
2022-08-25T11:01:48.127Z,32.40
2022-08-25T11:04:39.529Z,32.70
2022-08-25T11:07:18.885Z,32.70
2022-08-25T11:09:50.338Z,32.40
2022-08-25T11:12:42.965Z,32.70
2022-08-25T11:15:13.460Z,32.90
2022-08-25T11:17:58.500Z,33.10
2022-08-25T11:20:37.248Z,33.20
2022-08-25T11:23:14.432Z,33.10
2022-08-25T11:25:46.736Z,33.20
2022-08-25T11:28:52.743Z,33.50
2022-08-25T11:31:21.568Z,33.70
2022-08-25T11:33:50.985Z,33.60
2022-08-25T11:36:41.720Z,33.70
2022-08-25T11:39:51.476Z,33.80
2022-08-25T11:42:52.893Z,34.10
2022-08-25T11:45:42.714Z,33.80
2022-08-25T11:48:41.811Z,34.00
2022-08-25T11:54:29.096Z,34.70
2022-08-25T11:57:08.815Z,34.60
2022-08-25T11:59:51.637Z,34.50
2022-08-25T12:02:30.360Z,34.80
2022-08-25T12:04:57.326Z,34.50
2022-08-25T12:08:10.755Z,34.30
2022-08-25T12:10:52.732Z,34.20
2022-08-25T12:13:44.359Z,34.40
2022-08-25T12:16:31.594Z,34.70
2022-08-25T12:19:33.793Z,34.90
2022-08-25T12:22:04.048Z,34.90
2022-08-25T12:24:53.417Z,35.00
2022-08-25T12:27:20.863Z,35.10
2022-08-25T12:30:23.353Z,35.30
2022-08-25T12:33:37.653Z,35.50
2022-08-25T12:36:11.118Z,35.80
2022-08-25T12:38:52.556Z,35.90
2022-08-25T12:41:24.242Z,36.20
2022-08-25T12:43:53.722Z,36.30
2022-08-25T12:46:26.943Z,36.00
2022-08-25T12:49:03.063Z,35.70
2022-08-25T12:51:32.886Z,35.70
2022-08-25T12:54:23.869Z,35.80
2022-08-25T12:56:57.922Z,35.80
2022-08-25T12:59:32.916Z,35.60
2022-08-25T13:02:14.899Z,35.70
2022-08-25T13:05:07.427Z,35.00
2022-08-25T13:07:46.798Z,34.80
2022-08-25T13:11:04.015Z,35.20
2022-08-25T13:13:52.769Z,35.50
2022-08-25T13:16:29.311Z,35.10
2022-08-25T13:19:23.780Z,34.70
2022-08-25T13:21:51.537Z,34.60
2022-08-25T13:24:40.729Z,34.80
2022-08-25T13:27:22.918Z,35.10
2022-08-25T13:29:52.935Z,35.10
2022-08-25T13:32:34.434Z,34.60
2022-08-25T13:35:24.677Z,34.50
2022-08-25T13:37:53.250Z,34.20
2022-08-25T13:40:26.202Z,34.10
2022-08-25T13:43:04.925Z,34.20
2022-08-25T13:45:41.312Z,34.50
2022-08-25T13:48:23.132Z,34.60
2022-08-25T13:51:05.443Z,34.70
2022-08-25T13:53:34.779Z,34.50
2022-08-25T13:56:03.454Z,34.30
2022-08-25T13:58:44.844Z,33.90
2022-08-25T14:01:49.089Z,33.60
2022-08-25T14:04:51.789Z,33.40
2022-08-25T14:07:21.934Z,33.50
2022-08-25T14:10:00.173Z,33.50
2022-08-25T14:12:35.888Z,33.60
2022-08-25T14:15:09.359Z,33.60
2022-08-25T14:17:40.028Z,33.60
2022-08-25T14:20:35.186Z,33.60
2022-08-25T14:23:10.194Z,33.70
2022-08-25T14:26:02.610Z,33.80
2022-08-25T14:28:31.241Z,34.20
2022-08-25T14:31:00.570Z,34.40
2022-08-25T14:33:36.708Z,34.50
2022-08-25T14:36:06.224Z,34.60
2022-08-25T14:38:38.766Z,34.70
2022-08-25T14:43:42.288Z,35.10
2022-08-25T14:46:17.889Z,35.20
2022-08-25T14:48:56.006Z,35.40
2022-08-25T14:51:28.946Z,35.50
2022-08-25T14:54:03.699Z,35.60
2022-08-25T14:56:31.389Z,35.70
2022-08-25T14:59:01.695Z,35.70
2022-08-25T15:01:33.971Z,35.60
2022-08-25T15:04:09.668Z,35.50
2022-08-25T15:07:23.843Z,35.30
2022-08-25T15:09:53.644Z,35.40
2022-08-25T15:12:46.014Z,35.40
2022-08-25T15:15:13.682Z,35.50
2022-08-25T15:17:47.072Z,35.40
2022-08-25T15:20:16.892Z,35.30
2022-08-25T15:22:47.358Z,35.30
2022-08-25T15:25:14.467Z,35.00
2022-08-25T15:27:46.138Z,34.90
2022-08-25T15:30:16.143Z,34.90
2022-08-25T15:32:43.509Z,34.80
2022-08-25T15:35:12.588Z,34.70
2022-08-25T15:37:47.377Z,34.60
2022-08-25T15:40:14.964Z,34.60
2022-08-25T15:42:45.931Z,34.30
2022-08-25T15:45:13.797Z,34.00
2022-08-25T15:47:41.290Z,33.90
2022-08-25T15:50:14.217Z,33.80
2022-08-25T15:52:46.712Z,33.80
2022-08-25T15:55:17.292Z,33.80
2022-08-25T15:57:45.150Z,33.60
2022-08-25T16:00:13.722Z,33.60
2022-08-25T16:02:47.264Z,33.50
2022-08-25T16:05:25.114Z,33.40
2022-08-25T16:07:52.701Z,33.20
2022-08-25T16:10:20.307Z,33.20
2022-08-25T16:12:49.482Z,33.10
2022-08-25T16:15:16.421Z,32.90
2022-08-25T16:17:50.574Z,32.80
2022-08-25T16:20:50.263Z,32.60
2022-08-25T16:23:18.747Z,32.60
2022-08-25T16:25:46.570Z,32.40
2022-08-25T16:28:15.868Z,32.40
2022-08-25T16:30:52.517Z,32.20
2022-08-25T16:33:22.644Z,32.10
2022-08-25T16:35:49.645Z,32.10
2022-08-25T16:38:17.069Z,32.00
2022-08-25T16:40:45.630Z,31.90
2022-08-25T16:43:16.910Z,31.80
2022-08-25T16:45:43.723Z,31.70
2022-08-25T16:48:10.617Z,31.70
2022-08-25T16:50:38.913Z,31.60
2022-08-25T16:53:24.074Z,31.60
2022-08-25T16:56:00.738Z,31.50
2022-08-25T16:58:27.482Z,31.40
2022-08-25T17:01:04.683Z,31.30
2022-08-25T17:03:34.463Z,31.30
2022-08-25T17:06:02.344Z,31.20
2022-08-25T17:08:29.114Z,31.10
2022-08-25T17:11:25.785Z,31.10
2022-08-25T17:13:55.640Z,31.00
2022-08-25T17:16:29.074Z,30.90
2022-08-25T17:19:03.602Z,30.90
2022-08-25T17:21:35.723Z,30.80
2022-08-25T17:24:04.888Z,30.80
2022-08-25T17:26:35.482Z,30.70
2022-08-25T17:29:04.862Z,30.70
2022-08-25T17:31:36.639Z,30.60
2022-08-25T17:34:10.050Z,30.60
2022-08-25T17:36:40.768Z,30.50
2022-08-25T17:39:10.979Z,30.40
2022-08-25T17:41:39.062Z,30.40
2022-08-25T17:44:09.469Z,30.30
2022-08-25T17:46:39.158Z,30.30
2022-08-25T17:49:11.200Z,30.20
2022-08-25T17:51:46.069Z,30.10
2022-08-25T17:54:13.481Z,30.10
2022-08-25T17:56:40.772Z,30.00
2022-08-25T17:59:07.789Z,29.90
2022-08-25T18:01:42.140Z,29.90
2022-08-25T18:04:17.213Z,29.80
2022-08-25T18:06:48.940Z,29.80
2022-08-25T18:09:16.290Z,29.70
2022-08-25T18:11:45.124Z,29.60
2022-08-25T18:14:14.134Z,29.40
2022-08-25T18:16:43.751Z,29.30
2022-08-25T18:19:12.663Z,29.10
2022-08-25T18:21:41.536Z,28.90
2022-08-25T18:24:10.571Z,28.80
2022-08-25T18:26:40.532Z,28.60
2022-08-25T18:29:12.182Z,28.40
2022-08-25T18:31:40.585Z,28.20
2022-08-25T18:34:10.708Z,28.00
2022-08-25T18:36:39.198Z,27.90
2022-08-25T18:39:34.572Z,27.70
2022-08-25T18:42:05.652Z,27.60
2022-08-25T18:44:33.863Z,27.50
2022-08-25T18:47:00.480Z,27.30
2022-08-25T18:49:34.822Z,27.20
2022-08-25T18:52:02.298Z,27.00
2022-08-25T18:54:32.941Z,26.80
2022-08-25T18:57:06.598Z,26.70
2022-08-25T18:59:38.810Z,26.60
2022-08-25T19:02:06.746Z,26.40
2022-08-25T19:04:33.481Z,26.30
2022-08-25T19:07:05.421Z,26.10
2022-08-25T19:09:35.678Z,26.00
2022-08-25T19:12:11.818Z,25.90
2022-08-25T19:14:49.315Z,25.70
2022-08-25T19:17:19.315Z,25.60
2022-08-25T19:19:59.410Z,25.40
2022-08-25T19:22:41.085Z,25.30
2022-08-25T19:25:11.616Z,25.10
2022-08-25T19:27:39.618Z,25.00
2022-08-25T19:30:09.422Z,24.80
2022-08-25T19:32:39.401Z,24.70
2022-08-25T19:35:38.749Z,24.60
2022-08-25T19:38:33.687Z,24.50
2022-08-25T19:41:00.836Z,24.40
2022-08-25T19:43:30.713Z,24.30
2022-08-25T19:45:57.650Z,24.10
2022-08-25T19:48:26.660Z,24.10
2022-08-25T19:50:56.044Z,24.00
2022-08-25T19:53:23.140Z,24.00
2022-08-25T19:55:53.428Z,23.90
2022-08-25T19:58:20.241Z,23.80
2022-08-25T20:00:49.430Z,23.80
2022-08-25T20:03:19.832Z,23.70
2022-08-25T20:05:49.376Z,23.70
2022-08-25T20:08:16.013Z,23.60
2022-08-25T20:10:45.393Z,23.50
2022-08-25T20:13:15.219Z,23.40
2022-08-25T20:15:44.116Z,23.40
2022-08-25T20:18:10.821Z,23.30
2022-08-25T20:20:37.529Z,23.30
2022-08-25T20:23:25.362Z,23.30
2022-08-25T20:25:54.599Z,23.20
2022-08-25T20:28:25.944Z,23.10
2022-08-25T20:30:54.865Z,23.00
2022-08-25T20:33:28.132Z,22.90
2022-08-25T20:35:54.990Z,22.90
2022-08-25T20:38:22.516Z,22.90
2022-08-25T20:40:49.644Z,22.90
2022-08-25T20:43:18.587Z,22.80
2022-08-25T20:45:47.674Z,22.80
2022-08-25T20:48:14.481Z,22.70
2022-08-25T20:50:41.313Z,22.60
2022-08-25T20:53:13.489Z,22.60
2022-08-25T20:55:42.482Z,22.50
2022-08-25T20:58:14.096Z,22.40
2022-08-25T21:00:47.103Z,22.30
2022-08-25T21:03:14.033Z,22.20
2022-08-25T21:05:44.053Z,22.20
2022-08-25T21:11:10.101Z,22.10
2022-08-25T21:13:38.882Z,22.00
2022-08-25T21:16:17.127Z,21.90
2022-08-25T21:18:47.986Z,21.90
2022-08-25T21:21:15.405Z,21.90
2022-08-25T21:24:11.065Z,21.80
2022-08-25T21:26:48.461Z,21.70
2022-08-25T21:29:16.783Z,21.70
2022-08-25T21:31:46.190Z,21.60
2022-08-25T21:34:16.512Z,21.50
2022-08-25T21:36:48.655Z,21.40
2022-08-25T21:39:15.638Z,21.40
2022-08-25T21:41:45.151Z,21.40
2022-08-25T21:44:14.177Z,21.30
2022-08-25T21:46:53.810Z,21.30
2022-08-25T21:49:23.140Z,21.30
2022-08-25T21:52:16.545Z,21.20
2022-08-25T21:54:55.745Z,21.20
2022-08-25T21:57:23.660Z,21.10
2022-08-25T21:59:51.224Z,21.00
2022-08-25T22:02:22.815Z,21.00
2022-08-25T22:04:53.924Z,20.90
2022-08-25T22:07:21.700Z,20.90
2022-08-25T22:09:48.416Z,20.80
2022-08-25T22:12:23.412Z,20.70
2022-08-25T22:14:52.188Z,20.70
2022-08-25T22:17:21.248Z,20.70
2022-08-25T22:19:53.746Z,20.70
2022-08-25T22:22:21.150Z,20.70
2022-08-25T22:24:48.110Z,20.60
2022-08-25T22:27:17.318Z,20.60
2022-08-25T22:29:43.917Z,20.60
2022-08-25T22:32:10.933Z,20.60
2022-08-25T22:34:43.747Z,20.50
2022-08-25T22:37:11.623Z,20.50
2022-08-25T22:39:38.403Z,20.50
2022-08-25T22:42:09.519Z,20.40
2022-08-25T22:44:38.733Z,20.40
2022-08-25T22:47:10.289Z,20.30
2022-08-25T22:49:39.098Z,20.30
2022-08-25T22:52:13.375Z,20.20
2022-08-25T22:54:41.353Z,20.20
2022-08-25T22:57:10.700Z,20.10
2022-08-25T22:59:37.905Z,20.10
2022-08-25T23:02:10.277Z,20.10
2022-08-25T23:04:41.133Z,20.00
2022-08-25T23:07:21.364Z,20.00
2022-08-25T23:09:48.151Z,19.90
2022-08-25T23:12:17.498Z,19.80
2022-08-25T23:14:46.494Z,19.80
2022-08-25T23:17:13.573Z,19.80
2022-08-25T23:19:42.840Z,19.80
2022-08-25T23:22:13.097Z,19.80
2022-08-25T23:24:46.999Z,19.80
2022-08-25T23:27:17.453Z,19.80
2022-08-25T23:29:47.147Z,19.80
2022-08-25T23:32:15.347Z,19.80
2022-08-25T23:34:46.516Z,19.80
2022-08-25T23:37:17.194Z,19.80
2022-08-25T23:39:47.214Z,19.70
2022-08-25T23:42:18.362Z,19.70
2022-08-25T23:44:45.037Z,19.70
2022-08-25T23:47:12.279Z,19.60
2022-08-25T23:49:39.191Z,19.60
2022-08-25T23:52:05.902Z,19.50
2022-08-25T23:54:38.775Z,19.30
2022-08-25T23:57:07.449Z,19.30
2022-08-25T23:59:35.781Z,19.20
